8NE5 weather

X1 Ranch Airport
Ericson, Nebraska, United States

Public forecast

Using degrees Fahrenheit for public forecast. Weather courtesy of forecast.io.

Closest aviation weather report (METAR) to X1 Ranch Airport

Closest report is Evelyn Sharp Field, 14.1 nm (26.2 km) SW. Retrieved 2019/10/22 07:53 UTC (19 minutes ago):

KODX 220753Z AUTO 30011KT 10SM CLR 03/M02 A2992 RMK AO2 SLP145 T00331022

Closest aviation forecast (TAF) to X1 Ranch Airport

Closest forecast is Central Nebraska Regional Airport, 52.9 nm (98.0 km) SSE. Retrieved 2019/10/22 06:36 UTC (2 hours ago):

TAF KGRI 220533Z 2206/2306 29012G19KT P6SM SKC WS008/32050KT FM221300 29012G17KT P6SM SKC FM221600 29019G28KT P6SM SKC FM230100 26006KT P6SM FEW250